createdAt,value
2019-05-19T00:02:11.941Z,89.89
2019-05-19T00:05:18.706Z,91.94
2019-05-19T00:08:25.160Z,92.14
2019-05-19T00:11:31.795Z,91.59
2019-05-19T00:14:38.292Z,90.17
2019-05-19T00:17:46.943Z,89.28
2019-05-19T00:20:53.480Z,91.47
2019-05-19T00:24:00.062Z,89.87
2019-05-19T00:27:07.622Z,89.70
2019-05-19T00:30:14.739Z,89.27
2019-05-19T00:33:22.733Z,86.55
2019-05-19T00:36:29.290Z,86.69
2019-05-19T00:39:35.911Z,88.85
2019-05-19T00:42:42.578Z,90.97
2019-05-19T00:45:49.160Z,89.11
2019-05-19T00:48:55.828Z,90.36
2019-05-19T00:52:02.518Z,92.51
2019-05-19T00:55:09.664Z,92.82
2019-05-19T00:58:17.120Z,92.97
2019-05-19T01:01:23.639Z,91.59
2019-05-19T01:04:32.658Z,91.00
2019-05-19T01:07:39.369Z,91.80
2019-05-19T01:10:46.463Z,90.56
2019-05-19T01:13:54.134Z,89.90
2019-05-19T01:17:00.623Z,89.49
2019-05-19T01:20:07.496Z,91.25
2019-05-19T01:23:14.003Z,91.04
2019-05-19T01:26:20.414Z,91.97
2019-05-19T01:29:27.120Z,91.35
2019-05-19T01:32:33.582Z,91.28
2019-05-19T01:35:40.333Z,91.64
2019-05-19T01:38:50.859Z,89.68
2019-05-19T01:41:57.420Z,89.57
2019-05-19T01:45:04.076Z,90.14
2019-05-19T01:48:10.570Z,88.86
2019-05-19T01:51:17.013Z,90.28
2019-05-19T01:54:23.747Z,91.23
2019-05-19T01:57:30.172Z,93.34
2019-05-19T02:00:36.631Z,92.66
2019-05-19T02:03:47.474Z,91.04
2019-05-19T02:06:53.953Z,89.63
2019-05-19T02:10:03.500Z,90.48
2019-05-19T02:13:10.074Z,91.56
2019-05-19T02:16:16.632Z,91.43
2019-05-19T02:19:23.232Z,92.71
2019-05-19T02:22:29.653Z,90.83
2019-05-19T02:25:36.340Z,91.89
2019-05-19T02:28:45.972Z,95.34
2019-05-19T02:31:52.634Z,96.30
2019-05-19T02:34:59.093Z,94.52
2019-05-19T02:38:05.912Z,95.17
2019-05-19T02:41:15.596Z,94.79
2019-05-19T02:44:23.946Z,93.69
2019-05-19T02:47:33.084Z,92.16
2019-05-19T02:50:51.807Z,93.08
2019-05-19T02:53:50.113Z,92.76
2019-05-19T02:56:57.509Z,93.52
2019-05-19T03:00:05.693Z,94.44
2019-05-19T03:03:12.280Z,93.42
2019-05-19T03:06:19.788Z,94.29
2019-05-19T03:09:26.469Z,93.41
2019-05-19T03:12:32.867Z,91.86
2019-05-19T03:15:42.648Z,94.19
2019-05-19T03:18:49.123Z,92.04
2019-05-19T03:21:55.660Z,93.70
2019-05-19T03:25:02.196Z,94.77
2019-05-19T03:28:08.797Z,96.54
2019-05-19T03:31:34.380Z,95.54
2019-05-19T03:34:40.808Z,95.48
2019-05-19T03:37:47.247Z,94.13
2019-05-19T03:40:53.967Z,92.14
2019-05-19T03:44:00.513Z,95.69
2019-05-19T03:47:07.004Z,96.04
2019-05-19T03:50:13.439Z,94.29
2019-05-19T03:53:19.954Z,94.39
2019-05-19T03:56:26.490Z,96.32
2019-05-19T03:59:33.036Z,94.49
2019-05-19T04:02:39.573Z,94.12
2019-05-19T04:05:46.539Z,94.70
2019-05-19T04:08:53.055Z,95.81
2019-05-19T04:11:59.601Z,95.91
2019-05-19T04:15:06.605Z,94.32
2019-05-19T04:18:13.087Z,93.62
2019-05-19T04:21:19.704Z,94.67
2019-05-19T04:24:26.116Z,94.25
2019-05-19T04:27:32.568Z,94.17
2019-05-19T04:30:39.052Z,95.37
2019-05-19T04:33:48.577Z,96.07
2019-05-19T04:36:55.190Z,94.76
2019-05-19T04:40:01.680Z,94.51
2019-05-19T04:43:11.207Z,93.11
2019-05-19T04:46:17.630Z,92.68
2019-05-19T04:49:24.103Z,92.02
2019-05-19T04:52:30.627Z,91.71
2019-05-19T04:55:37.116Z,90.98
2019-05-19T04:58:44.779Z,90.82
2019-05-19T05:01:51.301Z,90.90
2019-05-19T05:04:57.741Z,89.39
2019-05-19T05:08:04.297Z,89.25
2019-05-19T05:11:10.797Z,89.86
2019-05-19T05:14:17.189Z,88.04
2019-05-19T05:17:23.642Z,88.19
2019-05-19T05:20:30.501Z,88.83
2019-05-19T05:23:37.081Z,88.00
2019-05-19T05:26:44.800Z,88.24
2019-05-19T05:29:51.271Z,87.81
2019-05-19T05:32:57.833Z,87.58
2019-05-19T05:36:04.398Z,87.50
2019-05-19T05:39:10.926Z,87.23
2019-05-19T05:42:17.484Z,84.39
2019-05-19T05:45:24.460Z,84.30
2019-05-19T05:48:30.996Z,82.80
2019-05-19T05:51:37.503Z,82.94
2019-05-19T05:54:46.854Z,83.91
2019-05-19T05:57:55.175Z,81.59
2019-05-19T06:01:01.623Z,81.78
2019-05-19T06:04:08.205Z,81.23
2019-05-19T06:07:14.867Z,80.10
2019-05-19T06:10:21.903Z,79.32
2019-05-19T06:13:28.288Z,78.87
2019-05-19T06:16:34.890Z,78.07
2019-05-19T06:19:41.557Z,76.84
2019-05-19T06:22:56.425Z,78.60
2019-05-19T06:25:56.505Z,76.26
2019-05-19T06:29:03.188Z,77.64
2019-05-19T06:32:17.375Z,76.54
2019-05-19T06:35:23.893Z,75.36
2019-05-19T06:38:30.389Z,75.96
2019-05-19T06:41:36.879Z,75.50
2019-05-19T06:44:43.588Z,74.63
2019-05-19T06:47:51.169Z,74.64
2019-05-19T06:50:57.604Z,72.72
2019-05-19T06:54:04.383Z,72.56
2019-05-19T06:57:11.095Z,73.44
2019-05-19T07:00:19.354Z,73.74
2019-05-19T07:03:25.850Z,72.53
2019-05-19T07:06:34.180Z,72.24
2019-05-19T07:09:40.689Z,72.55
2019-05-19T07:12:47.140Z,68.92
2019-05-19T07:15:55.273Z,67.37
2019-05-19T07:19:01.680Z,68.74
2019-05-19T07:22:08.138Z,68.42
2019-05-19T07:25:14.735Z,66.80
2019-05-19T07:28:21.347Z,67.57
2019-05-19T07:31:27.808Z,66.69
2019-05-19T07:34:34.341Z,68.50
2019-05-19T07:37:40.855Z,67.74
2019-05-19T07:40:47.379Z,67.21
2019-05-19T07:43:55.491Z,67.25
2019-05-19T07:47:01.971Z,65.93
2019-05-19T07:50:08.676Z,65.61
2019-05-19T07:53:15.272Z,62.51
2019-05-19T07:56:21.745Z,62.98
2019-05-19T07:59:28.274Z,62.23
2019-05-19T08:02:35.154Z,62.92
2019-05-19T08:05:44.727Z,59.83
2019-05-19T08:08:51.345Z,61.70
2019-05-19T08:11:57.713Z,60.66
2019-05-19T08:15:04.559Z,60.02
2019-05-19T08:18:12.685Z,60.90
2019-05-19T08:21:19.147Z,59.36
2019-05-19T08:24:25.724Z,59.31
2019-05-19T08:27:32.583Z,57.47
2019-05-19T08:30:39.168Z,56.75
2019-05-19T08:33:48.664Z,58.19
2019-05-19T08:36:55.156Z,56.76
2019-05-19T08:40:02.802Z,54.84
2019-05-19T08:43:09.340Z,53.64
2019-05-19T08:46:16.198Z,54.34
2019-05-19T08:49:25.282Z,54.89
2019-05-19T08:52:34.680Z,52.71
2019-05-19T08:55:41.185Z,54.58
2019-05-19T08:58:49.214Z,56.15
2019-05-19T09:01:56.776Z,51.88
2019-05-19T09:05:03.219Z,51.23
2019-05-19T09:08:09.683Z,52.17
2019-05-19T09:11:16.299Z,53.05
2019-05-19T09:14:22.779Z,50.87
2019-05-19T09:17:30.901Z,52.66
2019-05-19T09:20:37.363Z,52.64
2019-05-19T09:23:44.496Z,52.30
2019-05-19T09:26:50.976Z,51.29
2019-05-19T09:30:01.604Z,48.20
2019-05-19T09:33:11.976Z,48.65
2019-05-19T09:36:18.465Z,51.79
2019-05-19T09:39:24.938Z,51.72
2019-05-19T09:42:31.489Z,47.69
2019-05-19T09:45:37.954Z,48.38
2019-05-19T09:48:45.789Z,46.17
2019-05-19T09:51:52.269Z,49.14
2019-05-19T09:54:58.836Z,44.03
2019-05-19T09:58:05.420Z,46.67
2019-05-19T10:01:11.955Z,45.38
2019-05-19T10:04:20.343Z,50.56
2019-05-19T10:07:26.811Z,49.84
2019-05-19T10:11:12.554Z,51.71
2019-05-19T10:14:19.081Z,52.37
2019-05-19T10:17:25.652Z,50.94
2019-05-19T10:20:32.181Z,53.08
2019-05-19T10:23:38.885Z,52.25
2019-05-19T10:26:46.109Z,48.06
2019-05-19T10:29:52.532Z,47.93
2019-05-19T10:32:59.016Z,48.01
2019-05-19T10:36:05.783Z,49.37
2019-05-19T10:39:12.357Z,49.41
2019-05-19T10:42:18.898Z,46.99
2019-05-19T10:45:25.384Z,46.83
2019-05-19T10:48:31.994Z,47.58
2019-05-19T10:51:40.173Z,46.45
2019-05-19T10:54:46.681Z,43.59
2019-05-19T10:57:53.442Z,42.48
2019-05-19T11:00:59.926Z,44.02
2019-05-19T11:04:06.507Z,47.32
2019-05-19T11:07:13.225Z,46.01
2019-05-19T11:10:20.915Z,45.00
2019-05-19T11:13:27.413Z,45.69
2019-05-19T11:16:33.951Z,45.28
2019-05-19T11:19:40.411Z,44.61
2019-05-19T11:22:47.069Z,44.32
2019-05-19T11:25:53.410Z,47.41
2019-05-19T11:28:59.851Z,45.50
2019-05-19T11:32:06.408Z,46.52
2019-05-19T11:35:12.889Z,44.23
2019-05-19T11:38:19.170Z,44.31
2019-05-19T11:41:25.351Z,44.67
2019-05-19T11:44:31.584Z,44.17
2019-05-19T11:47:37.974Z,46.44
2019-05-19T11:50:45.065Z,45.20
2019-05-19T11:53:51.627Z,45.17
2019-05-19T11:56:58.199Z,46.16
2019-05-19T12:00:07.361Z,45.26
2019-05-19T12:03:13.573Z,45.57
2019-05-19T12:06:20.277Z,42.02
2019-05-19T12:09:26.783Z,46.22
2019-05-19T12:12:33.273Z,44.45
2019-05-19T12:15:39.391Z,45.51
2019-05-19T12:18:47.049Z,45.69
2019-05-19T12:21:53.536Z,47.60
2019-05-19T12:25:01.056Z,47.73
2019-05-19T12:28:07.747Z,46.71
2019-05-19T12:31:16.835Z,47.03
2019-05-19T12:34:22.116Z,45.41
2019-05-19T12:37:28.643Z,48.40
2019-05-19T12:40:34.804Z,48.98
2019-05-19T12:43:40.999Z,48.62
2019-05-19T12:46:48.841Z,45.98
2019-05-19T12:49:55.127Z,47.05
2019-05-19T12:53:01.366Z,45.32
2019-05-19T12:56:07.561Z,46.91
2019-05-19T12:59:14.775Z,48.29
2019-05-19T13:02:21.199Z,45.69
2019-05-19T13:05:28.898Z,47.37
2019-05-19T13:08:35.409Z,46.71
2019-05-19T13:11:43.887Z,49.92
2019-05-19T13:14:50.080Z,49.16
2019-05-19T13:17:56.481Z,50.78
2019-05-19T13:21:03.013Z,49.90
2019-05-19T13:24:11.102Z,50.27
2019-05-19T13:27:17.578Z,49.84
2019-05-19T13:30:24.236Z,48.31
2019-05-19T13:33:30.697Z,47.67
2019-05-19T13:36:40.203Z,47.94
2019-05-19T13:39:47.365Z,47.53
2019-05-19T13:42:53.513Z,47.22
2019-05-19T13:46:00.294Z,45.87
2019-05-19T13:49:06.853Z,45.43
2019-05-19T13:52:13.206Z,46.17
2019-05-19T13:55:19.844Z,45.44
2019-05-19T13:58:26.039Z,45.15
2019-05-19T14:01:32.250Z,45.52
2019-05-19T14:04:38.747Z,45.88
2019-05-19T14:07:45.606Z,44.16
2019-05-19T14:10:55.070Z,45.77
2019-05-19T14:14:01.309Z,46.10
2019-05-19T14:17:07.654Z,45.01
2019-05-19T14:20:14.238Z,43.71
2019-05-19T14:23:20.513Z,43.46
2019-05-19T14:26:26.787Z,43.89
2019-05-19T14:29:35.768Z,46.14
2019-05-19T14:32:44.052Z,47.16
2019-05-19T14:35:50.228Z,45.88
2019-05-19T14:39:05.059Z,47.95
2019-05-19T14:42:13.647Z,46.22
2019-05-19T14:45:20.937Z,46.55
2019-05-19T14:48:27.041Z,46.83
2019-05-19T14:51:33.455Z,45.71
2019-05-19T14:54:39.728Z,45.15
2019-05-19T14:57:47.000Z,43.75
2019-05-19T15:00:53.189Z,47.28
2019-05-19T15:03:59.495Z,46.82
2019-05-19T15:07:06.845Z,50.07
2019-05-19T15:10:13.627Z,45.93
2019-05-19T15:13:20.120Z,47.21
2019-05-19T15:16:26.358Z,49.93
2019-05-19T15:19:32.451Z,49.05
2019-05-19T15:22:38.716Z,50.83
2019-05-19T15:25:45.542Z,51.07
2019-05-19T15:28:51.710Z,53.87
2019-05-19T15:32:00.028Z,50.19
2019-05-19T15:35:07.010Z,48.73
2019-05-19T15:39:26.353Z,48.50
2019-05-19T15:42:32.513Z,49.92
2019-05-19T15:45:42.920Z,49.71
2019-05-19T15:48:49.170Z,49.65
2019-05-19T15:52:02.980Z,50.53
2019-05-19T15:55:03.750Z,47.52
2019-05-19T15:58:16.487Z,48.36
2019-05-19T16:01:18.045Z,49.26
2019-05-19T16:04:25.423Z,46.71
2019-05-19T16:07:31.861Z,46.58
2019-05-19T16:10:38.143Z,46.43
2019-05-19T16:13:44.879Z,46.32
2019-05-19T16:16:51.582Z,46.84
2019-05-19T16:19:57.692Z,48.88
2019-05-19T16:23:04.351Z,49.71
2019-05-19T16:26:10.684Z,49.29
2019-05-19T16:29:16.963Z,51.24
2019-05-19T16:32:23.413Z,50.46
2019-05-19T16:35:29.847Z,51.37
2019-05-19T16:38:36.353Z,54.74
2019-05-19T16:41:46.051Z,55.22
2019-05-19T16:44:52.303Z,55.47
2019-05-19T16:47:58.558Z,54.50
2019-05-19T16:51:04.908Z,52.79
2019-05-19T16:54:15.760Z,52.29
2019-05-19T16:57:22.045Z,54.67
2019-05-19T17:00:29.858Z,57.42
2019-05-19T17:03:36.098Z,55.79
2019-05-19T17:06:43.144Z,58.12
2019-05-19T17:09:50.645Z,54.38
2019-05-19T17:12:57.495Z,53.85
2019-05-19T17:16:04.104Z,53.27
2019-05-19T17:19:10.587Z,54.97
2019-05-19T17:22:17.076Z,54.59
2019-05-19T17:25:23.768Z,54.53
2019-05-19T17:28:30.424Z,55.21
2019-05-19T17:31:36.999Z,55.92
2019-05-19T17:34:45.844Z,57.66
2019-05-19T17:37:53.695Z,62.71
2019-05-19T17:41:00.194Z,63.23
2019-05-19T17:44:06.817Z,63.44
2019-05-19T17:47:13.334Z,60.55
2019-05-19T17:50:34.796Z,59.36
2019-05-19T17:53:44.790Z,60.63
2019-05-19T17:56:53.416Z,61.59
2019-05-19T18:00:02.259Z,61.78
2019-05-19T18:03:10.674Z,62.51
2019-05-19T18:06:17.349Z,62.41
2019-05-19T18:09:24.049Z,61.40
2019-05-19T18:12:31.709Z,62.51
2019-05-19T18:15:39.092Z,63.07
2019-05-19T18:18:47.848Z,66.86
2019-05-19T18:21:57.861Z,66.03
2019-05-19T18:25:04.608Z,66.18
2019-05-19T18:28:11.065Z,65.16
2019-05-19T18:31:17.538Z,64.63
2019-05-19T18:34:23.959Z,65.92
2019-05-19T18:37:32.396Z,65.72
2019-05-19T18:40:39.028Z,66.28
2019-05-19T18:43:46.888Z,65.56
2019-05-19T18:46:53.409Z,66.63
2019-05-19T18:51:09.482Z,67.86
2019-05-19T18:54:15.973Z,68.39
2019-05-19T18:57:22.430Z,65.90
2019-05-19T19:00:40.255Z,67.03
2019-05-19T19:03:47.230Z,67.41
2019-05-19T19:06:54.096Z,68.38
2019-05-19T19:10:00.497Z,68.88
2019-05-19T19:13:08.135Z,68.44
2019-05-19T19:16:14.735Z,68.26
2019-05-19T19:19:21.343Z,68.31
2019-05-19T19:22:28.045Z,67.89
2019-05-19T19:25:37.567Z,67.17
2019-05-19T19:28:46.332Z,68.36
2019-05-19T19:31:53.103Z,67.17
2019-05-19T19:34:59.490Z,68.13
2019-05-19T19:38:06.846Z,67.71
2019-05-19T19:41:13.797Z,66.61
2019-05-19T19:44:20.953Z,67.53
2019-05-19T19:47:27.950Z,67.54
2019-05-19T19:50:37.114Z,67.42
2019-05-19T19:53:45.266Z,69.95
2019-05-19T19:56:52.142Z,70.32
2019-05-19T19:59:59.376Z,70.28
2019-05-19T20:03:06.805Z,69.66
2019-05-19T20:06:16.358Z,69.83
2019-05-19T20:09:23.212Z,76.26
2019-05-19T20:12:31.975Z,75.35
2019-05-19T20:15:42.027Z,72.25
2019-05-19T20:18:48.689Z,71.81
2019-05-19T20:21:55.362Z,75.96
2019-05-19T20:25:01.764Z,78.00
2019-05-19T20:28:08.407Z,76.58
2019-05-19T20:31:14.975Z,73.73
2019-05-19T20:34:21.478Z,73.95
2019-05-19T20:37:28.104Z,77.80
2019-05-19T20:40:34.616Z,79.17
2019-05-19T20:43:41.149Z,77.74
2019-05-19T20:46:47.721Z,74.72
2019-05-19T20:49:56.301Z,77.22
2019-05-19T20:53:02.893Z,76.10
2019-05-19T20:56:09.367Z,75.68
2019-05-19T20:59:19.019Z,74.50
2019-05-19T21:02:25.644Z,74.85
2019-05-19T21:05:32.271Z,74.43
2019-05-19T21:08:39.066Z,74.84
2019-05-19T21:11:47.568Z,76.98
2019-05-19T21:14:54.140Z,77.20
2019-05-19T21:18:01.099Z,76.83
2019-05-19T21:21:07.669Z,77.57
2019-05-19T21:24:14.197Z,78.78
2019-05-19T21:27:37.482Z,80.96
2019-05-19T21:30:47.656Z,79.51
2019-05-19T21:33:54.150Z,79.15
2019-05-19T21:37:00.749Z,77.70
2019-05-19T21:40:08.539Z,77.36
2019-05-19T21:43:15.083Z,81.19
2019-05-19T21:46:21.641Z,82.66
2019-05-19T21:49:28.119Z,82.14
2019-05-19T21:52:34.671Z,84.02
2019-05-19T21:55:41.100Z,83.85
2019-05-19T21:58:51.324Z,80.28
2019-05-19T22:01:57.789Z,84.46
2019-05-19T22:05:04.603Z,80.71
2019-05-19T22:08:15.164Z,81.00
2019-05-19T22:11:21.594Z,84.56
2019-05-19T22:14:28.085Z,83.12
2019-05-19T22:17:34.729Z,83.27
2019-05-19T22:20:43.414Z,82.11
2019-05-19T22:23:50.971Z,83.78
2019-05-19T22:26:57.483Z,82.66
2019-05-19T22:30:05.909Z,84.83
2019-05-19T22:33:12.440Z,85.17
2019-05-19T22:36:20.183Z,83.80
2019-05-19T22:39:26.589Z,83.26
2019-05-19T22:42:33.185Z,84.98
2019-05-19T22:45:39.928Z,84.61
2019-05-19T22:48:46.529Z,84.52
2019-05-19T22:51:53.144Z,83.64
2019-05-19T22:55:02.093Z,84.08
2019-05-19T22:58:08.685Z,80.89
2019-05-19T23:01:16.917Z,77.50
2019-05-19T23:04:23.925Z,79.72
2019-05-19T23:07:30.502Z,83.13
2019-05-19T23:10:39.547Z,84.83
2019-05-19T23:13:47.125Z,83.75
2019-05-19T23:16:55.732Z,84.28
2019-05-19T23:20:02.222Z,82.37
2019-05-19T23:23:10.606Z,83.08
2019-05-19T23:26:17.132Z,83.47
2019-05-19T23:29:23.670Z,82.82
2019-05-19T23:32:31.701Z,82.37
2019-05-19T23:35:38.154Z,82.71
2019-05-19T23:38:46.810Z,85.69
2019-05-19T23:41:53.572Z,87.20
2019-05-19T23:45:00.107Z,86.33
2019-05-19T23:48:08.732Z,85.85
2019-05-19T23:51:15.223Z,90.48
2019-05-19T23:54:21.949Z,84.09
2019-05-19T23:57:28.609Z,86.31
